sensor_id;sensor_type;location;lat;lon;timestamp;pressure;altitude;pressure_sealevel;temperature;humidity
71126;BME280;58785;55.566;38.058;2023-04-29T00:01:25;100017.28;;;6.97;81.41
71126;BME280;58785;55.566;38.058;2023-04-29T00:03:52;100012.59;;;6.89;81.26
71126;BME280;58785;55.566;38.058;2023-04-29T00:06:18;99998.19;;;6.82;81.65
71126;BME280;58785;55.566;38.058;2023-04-29T00:08:43;100015.13;;;6.90;81.91
71126;BME280;58785;55.566;38.058;2023-04-29T00:11:09;100022.97;;;6.92;81.22
71126;BME280;58785;55.566;38.058;2023-04-29T00:13:36;100013.56;;;6.88;81.75
71126;BME280;58785;55.566;38.058;2023-04-29T00:16:04;100023.91;;;6.91;81.09
71126;BME280;58785;55.566;38.058;2023-04-29T00:18:29;99999.47;;;6.87;81.09
71126;BME280;58785;55.566;38.058;2023-04-29T00:20:56;99997.22;;;6.83;81.83
71126;BME280;58785;55.566;38.058;2023-04-29T00:23:22;99991.19;;;6.81;81.77
71126;BME280;58785;55.566;38.058;2023-04-29T00:25:48;99983.63;;;6.76;81.26
71126;BME280;58785;55.566;38.058;2023-04-29T00:28:14;99982.78;;;6.76;81.82
71126;BME280;58785;55.566;38.058;2023-04-29T00:30:40;99978.19;;;6.78;81.82
71126;BME280;58785;55.566;38.058;2023-04-29T00:33:06;99982.38;;;6.80;80.95
71126;BME280;58785;55.566;38.058;2023-04-29T00:35:31;99984.34;;;6.78;81.59
71126;BME280;58785;55.566;38.058;2023-04-29T00:37:57;99977.00;;;6.71;81.91
71126;BME280;58785;55.566;38.058;2023-04-29T00:40:22;100001.78;;;6.81;80.98
71126;BME280;58785;55.566;38.058;2023-04-29T00:42:48;99984.81;;;6.83;81.49
71126;BME280;58785;55.566;38.058;2023-04-29T00:45:14;99978.19;;;6.78;81.55
71126;BME280;58785;55.566;38.058;2023-04-29T00:47:39;99992.16;;;6.80;81.50
71126;BME280;58785;55.566;38.058;2023-04-29T00:50:06;99994.34;;;6.75;81.25
71126;BME280;58785;55.566;38.058;2023-04-29T00:52:33;99991.34;;;6.68;81.24
71126;BME280;58785;55.566;38.058;2023-04-29T00:55:00;99991.13;;;6.60;80.95
71126;BME280;58785;55.566;38.058;2023-04-29T00:57:27;99994.88;;;6.57;81.17
71126;BME280;58785;55.566;38.058;2023-04-29T00:59:56;100004.75;;;6.55;81.58
71126;BME280;58785;55.566;38.058;2023-04-29T01:02:23;100008.03;;;6.48;81.72
71126;BME280;58785;55.566;38.058;2023-04-29T01:04:50;100013.44;;;6.46;81.55
71126;BME280;58785;55.566;38.058;2023-04-29T01:07:18;100014.28;;;6.47;81.32
71126;BME280;58785;55.566;38.058;2023-04-29T01:10:13;100014.78;;;6.41;81.41
71126;BME280;58785;55.566;38.058;2023-04-29T01:12:53;100010.13;;;6.22;81.44
71126;BME280;58785;55.566;38.058;2023-04-29T01:18:05;100023.34;;;6.11;81.30
71126;BME280;58785;55.566;38.058;2023-04-29T01:20:35;100010.13;;;5.99;80.25
71126;BME280;58785;55.566;38.058;2023-04-29T01:23:02;100017.84;;;6.02;81.15
71126;BME280;58785;55.566;38.058;2023-04-29T01:25:28;100026.97;;;5.98;80.86
71126;BME280;58785;55.566;38.058;2023-04-29T01:30:36;100021.22;;;5.93;81.08
71126;BME280;58785;55.566;38.058;2023-04-29T01:33:20;100031.31;;;5.99;80.62
71126;BME280;58785;55.566;38.058;2023-04-29T01:38:59;100038.75;;;5.83;80.88
71126;BME280;58785;55.566;38.058;2023-04-29T01:41:56;100042.69;;;5.77;80.62
71126;BME280;58785;55.566;38.058;2023-04-29T01:44:28;100055.53;;;5.71;80.58
71126;BME280;58785;55.566;38.058;2023-04-29T01:46:54;100047.13;;;5.66;80.81
71126;BME280;58785;55.566;38.058;2023-04-29T01:49:23;100040.41;;;5.62;80.62
71126;BME280;58785;55.566;38.058;2023-04-29T01:51:49;100046.38;;;5.53;80.68
71126;BME280;58785;55.566;38.058;2023-04-29T01:54:15;100062.47;;;5.49;80.84
71126;BME280;58785;55.566;38.058;2023-04-29T01:56:41;100041.91;;;5.42;80.62
71126;BME280;58785;55.566;38.058;2023-04-29T01:59:06;100035.88;;;5.40;81.13
71126;BME280;58785;55.566;38.058;2023-04-29T02:01:32;100008.53;;;5.17;80.85
71126;BME280;58785;55.566;38.058;2023-04-29T02:03:58;100017.72;;;5.24;81.04
71126;BME280;58785;55.566;38.058;2023-04-29T02:06:24;100021.06;;;5.26;80.89
71126;BME280;58785;55.566;38.058;2023-04-29T02:08:51;100023.00;;;5.24;81.22
71126;BME280;58785;55.566;38.058;2023-04-29T02:11:16;100031.53;;;5.28;80.82
71126;BME280;58785;55.566;38.058;2023-04-29T02:13:42;100024.78;;;5.24;80.74
71126;BME280;58785;55.566;38.058;2023-04-29T02:16:12;100041.38;;;5.26;80.73
71126;BME280;58785;55.566;38.058;2023-04-29T02:18:38;100046.06;;;5.22;80.87
71126;BME280;58785;55.566;38.058;2023-04-29T02:21:06;100045.78;;;5.14;80.70
71126;BME280;58785;55.566;38.058;2023-04-29T02:23:32;100045.16;;;5.10;80.96
71126;BME280;58785;55.566;38.058;2023-04-29T02:25:58;100047.72;;;5.12;80.77
71126;BME280;58785;55.566;38.058;2023-04-29T02:28:24;100056.47;;;5.12;80.74
71126;BME280;58785;55.566;38.058;2023-04-29T02:30:49;100056.91;;;5.06;80.88
71126;BME280;58785;55.566;38.058;2023-04-29T02:33:15;100075.06;;;5.11;81.03
71126;BME280;58785;55.566;38.058;2023-04-29T02:35:40;100075.69;;;5.14;80.47
71126;BME280;58785;55.566;38.058;2023-04-29T02:38:06;100089.25;;;5.10;80.38
71126;BME280;58785;55.566;38.058;2023-04-29T02:40:32;100088.75;;;5.05;80.59
71126;BME280;58785;55.566;38.058;2023-04-29T02:42:58;100091.28;;;5.06;80.67
71126;BME280;58785;55.566;38.058;2023-04-29T02:45:23;100104.38;;;5.08;80.71
71126;BME280;58785;55.566;38.058;2023-04-29T02:47:49;100097.84;;;5.01;80.94
71126;BME280;58785;55.566;38.058;2023-04-29T02:50:15;100106.47;;;4.92;81.11
71126;BME280;58785;55.566;38.058;2023-04-29T02:52:40;100100.34;;;4.91;80.92
71126;BME280;58785;55.566;38.058;2023-04-29T02:55:07;100123.03;;;4.94;80.85
71126;BME280;58785;55.566;38.058;2023-04-29T02:57:33;100124.00;;;4.93;81.00
71126;BME280;58785;55.566;38.058;2023-04-29T02:59:59;100111.84;;;4.90;80.73
71126;BME280;58785;55.566;38.058;2023-04-29T03:02:25;100117.69;;;4.82;80.77
71126;BME280;58785;55.566;38.058;2023-04-29T03:04:50;100119.69;;;4.79;80.97
71126;BME280;58785;55.566;38.058;2023-04-29T03:07:17;100141.47;;;4.82;80.92
71126;BME280;58785;55.566;38.058;2023-04-29T03:09:42;100140.94;;;4.77;80.62
71126;BME280;58785;55.566;38.058;2023-04-29T03:12:08;100146.47;;;4.74;80.87
71126;BME280;58785;55.566;38.058;2023-04-29T03:14:34;100134.41;;;4.70;80.62
71126;BME280;58785;55.566;38.058;2023-04-29T03:17:00;100150.66;;;4.77;80.65
71126;BME280;58785;55.566;38.058;2023-04-29T03:19:26;100149.72;;;4.78;80.58
71126;BME280;58785;55.566;38.058;2023-04-29T03:21:52;100148.75;;;4.79;80.40
71126;BME280;58785;55.566;38.058;2023-04-29T03:24:18;100136.97;;;4.72;80.66
71126;BME280;58785;55.566;38.058;2023-04-29T03:26:43;100146.94;;;4.79;80.44
71126;BME280;58785;55.566;38.058;2023-04-29T03:29:09;100153.00;;;4.81;80.20
71126;BME280;58785;55.566;38.058;2023-04-29T03:31:35;100144.03;;;4.71;80.58
71126;BME280;58785;55.566;38.058;2023-04-29T03:34:01;100148.56;;;4.69;80.58
71126;BME280;58785;55.566;38.058;2023-04-29T03:36:27;100150.16;;;4.59;80.61
71126;BME280;58785;55.566;38.058;2023-04-29T03:38:54;100144.38;;;4.54;80.41
71126;BME280;58785;55.566;38.058;2023-04-29T03:41:20;100149.66;;;4.54;80.97
71126;BME280;58785;55.566;38.058;2023-04-29T03:43:48;100139.53;;;4.48;80.82
71126;BME280;58785;55.566;38.058;2023-04-29T03:46:15;100154.72;;;4.57;80.69
71126;BME280;58785;55.566;38.058;2023-04-29T03:48:41;100155.03;;;4.65;80.52
71126;BME280;58785;55.566;38.058;2023-04-29T03:51:07;100165.38;;;4.68;80.37
71126;BME280;58785;55.566;38.058;2023-04-29T03:53:34;100157.13;;;4.73;79.95
71126;BME280;58785;55.566;38.058;2023-04-29T03:56:01;100165.69;;;4.76;79.99
71126;BME280;58785;55.566;38.058;2023-04-29T03:58:27;100162.69;;;4.81;80.33
71126;BME280;58785;55.566;38.058;2023-04-29T04:00:53;100161.84;;;4.80;80.08
71126;BME280;58785;55.566;38.058;2023-04-29T04:03:19;100171.03;;;4.87;79.87
71126;BME280;58785;55.566;38.058;2023-04-29T04:05:49;100162.06;;;4.77;79.88
71126;BME280;58785;55.566;38.058;2023-04-29T04:08:15;100163.88;;;4.77;80.20
71126;BME280;58785;55.566;38.058;2023-04-29T04:10:41;100175.81;;;4.82;79.55
71126;BME280;58785;55.566;38.058;2023-04-29T04:13:07;100180.53;;;4.90;80.17
71126;BME280;58785;55.566;38.058;2023-04-29T04:15:32;100172.41;;;4.80;79.94
71126;BME280;58785;55.566;38.058;2023-04-29T04:17:58;100169.69;;;4.82;79.79
71126;BME280;58785;55.566;38.058;2023-04-29T04:20:24;100186.03;;;4.87;79.67
71126;BME280;58785;55.566;38.058;2023-04-29T04:22:50;100187.41;;;4.93;79.73
71126;BME280;58785;55.566;38.058;2023-04-29T04:25:16;100183.41;;;4.87;79.65
71126;BME280;58785;55.566;38.058;2023-04-29T04:27:42;100179.41;;;4.81;79.57
71126;BME280;58785;55.566;38.058;2023-04-29T04:30:08;100186.38;;;4.70;80.02
71126;BME280;58785;55.566;38.058;2023-04-29T04:32:33;100181.94;;;4.70;80.25
71126;BME280;58785;55.566;38.058;2023-04-29T04:34:59;100188.41;;;4.66;79.74
71126;BME280;58785;55.566;38.058;2023-04-29T04:37:25;100177.72;;;4.68;80.26
71126;BME280;58785;55.566;38.058;2023-04-29T04:39:51;100186.91;;;4.75;80.14
71126;BME280;58785;55.566;38.058;2023-04-29T04:42:17;100186.81;;;4.76;79.96
71126;BME280;58785;55.566;38.058;2023-04-29T04:44:42;100180.78;;;4.74;79.97
71126;BME280;58785;55.566;38.058;2023-04-29T04:47:08;100177.44;;;4.72;80.12
71126;BME280;58785;55.566;38.058;2023-04-29T04:49:36;100179.81;;;4.88;79.57
71126;BME280;58785;55.566;38.058;2023-04-29T04:52:02;100177.88;;;5.03;79.57
71126;BME280;58785;55.566;38.058;2023-04-29T04:54:28;100192.22;;;5.11;79.60
71126;BME280;58785;55.566;38.058;2023-04-29T04:56:53;100180.06;;;5.09;79.46
71126;BME280;58785;55.566;38.058;2023-04-29T04:59:19;100182.59;;;5.10;79.52
71126;BME280;58785;55.566;38.058;2023-04-29T05:01:45;100176.91;;;5.04;79.51
71126;BME280;58785;55.566;38.058;2023-04-29T05:04:11;100187.66;;;5.13;79.76
71126;BME280;58785;55.566;38.058;2023-04-29T05:06:36;100174.88;;;5.07;79.62
71126;BME280;58785;55.566;38.058;2023-04-29T05:09:02;100169.84;;;5.04;79.63
71126;BME280;58785;55.566;38.058;2023-04-29T05:11:28;100188.28;;;5.17;80.01
71126;BME280;58785;55.566;38.058;2023-04-29T05:13:54;100176.44;;;5.23;79.50
71126;BME280;58785;55.566;38.058;2023-04-29T05:16:20;100188.03;;;5.33;79.13
71126;BME280;58785;55.566;38.058;2023-04-29T05:18:46;100186.16;;;5.46;79.35
71126;BME280;58785;55.566;38.058;2023-04-29T05:21:11;100184.59;;;5.43;79.18
71126;BME280;58785;55.566;38.058;2023-04-29T05:23:37;100191.00;;;5.52;78.85
71126;BME280;58785;55.566;38.058;2023-04-29T05:29:44;100199.38;;;5.46;79.26
71126;BME280;58785;55.566;38.058;2023-04-29T05:32:09;100203.22;;;5.42;79.25
71126;BME280;58785;55.566;38.058;2023-04-29T05:34:35;100197.41;;;5.37;79.08
71126;BME280;58785;55.566;38.058;2023-04-29T05:37:01;100206.41;;;5.34;79.22
71126;BME280;58785;55.566;38.058;2023-04-29T05:39:27;100209.91;;;5.35;79.33
71126;BME280;58785;55.566;38.058;2023-04-29T05:41:53;100212.53;;;5.35;79.45
71126;BME280;58785;55.566;38.058;2023-04-29T05:44:18;100212.31;;;5.38;79.42
71126;BME280;58785;55.566;38.058;2023-04-29T05:46:44;100213.22;;;5.26;79.18
71126;BME280;58785;55.566;38.058;2023-04-29T05:49:10;100230.31;;;5.33;79.38
71126;BME280;58785;55.566;38.058;2023-04-29T05:51:36;100240.97;;;5.44;79.48
71126;BME280;58785;55.566;38.058;2023-04-29T05:54:02;100239.16;;;5.44;79.27
71126;BME280;58785;55.566;38.058;2023-04-29T05:56:28;100238.53;;;5.41;79.10
71126;BME280;58785;55.566;38.058;2023-04-29T05:58:54;100239.28;;;5.43;79.41
71126;BME280;58785;55.566;38.058;2023-04-29T06:01:20;100236.16;;;5.49;79.10
71126;BME280;58785;55.566;38.058;2023-04-29T06:03:46;100244.44;;;5.44;79.33
71126;BME280;58785;55.566;38.058;2023-04-29T06:06:12;100244.16;;;5.36;79.30
71126;BME280;58785;55.566;38.058;2023-04-29T06:08:38;100249.84;;;5.43;79.36
71126;BME280;58785;55.566;38.058;2023-04-29T06:11:04;100249.84;;;5.43;79.38
71126;BME280;58785;55.566;38.058;2023-04-29T06:13:31;100257.66;;;5.44;79.37
71126;BME280;58785;55.566;38.058;2023-04-29T06:15:58;100263.56;;;5.48;79.16
71126;BME280;58785;55.566;38.058;2023-04-29T06:18:24;100262.50;;;5.51;79.47
71126;BME280;58785;55.566;38.058;2023-04-29T06:20:50;100262.97;;;5.44;79.22
71126;BME280;58785;55.566;38.058;2023-04-29T06:23:15;100267.06;;;5.48;79.20
71126;BME280;58785;55.566;38.058;2023-04-29T06:25:41;100267.06;;;5.48;79.07
71126;BME280;58785;55.566;38.058;2023-04-29T06:28:07;100266.94;;;5.50;79.60
71126;BME280;58785;55.566;38.058;2023-04-29T06:30:33;100258.81;;;5.53;79.05
71126;BME280;58785;55.566;38.058;2023-04-29T06:32:59;100287.06;;;5.76;78.84
71126;BME280;58785;55.566;38.058;2023-04-29T06:35:25;100300.56;;;5.85;78.99
71126;BME280;58785;55.566;38.058;2023-04-29T06:37:51;100301.19;;;5.88;78.56
71126;BME280;58785;55.566;38.058;2023-04-29T06:40:17;100298.66;;;5.87;78.28
71126;BME280;58785;55.566;38.058;2023-04-29T06:42:43;100298.50;;;6.01;78.07
71126;BME280;58785;55.566;38.058;2023-04-29T06:45:09;100303.75;;;6.14;77.78
71126;BME280;58785;55.566;38.058;2023-04-29T06:47:35;100302.81;;;6.26;77.87
71126;BME280;58785;55.566;38.058;2023-04-29T06:50:01;100297.31;;;6.40;77.84
71126;BME280;58785;55.566;38.058;2023-04-29T06:52:28;100320.28;;;6.63;77.28
71126;BME280;58785;55.566;38.058;2023-04-29T06:54:55;100324.84;;;6.61;77.04
71126;BME280;58785;55.566;38.058;2023-04-29T06:57:21;100330.06;;;6.74;76.86
71126;BME280;58785;55.566;38.058;2023-04-29T06:59:46;100311.25;;;6.77;76.92
71126;BME280;58785;55.566;38.058;2023-04-29T07:02:13;100323.09;;;6.84;76.23
71126;BME280;58785;55.566;38.058;2023-04-29T07:04:39;100330.53;;;6.90;76.24
71126;BME280;58785;55.566;38.058;2023-04-29T07:07:06;100339.59;;;6.99;76.29
71126;BME280;58785;55.566;38.058;2023-04-29T07:09:33;100340.81;;;7.06;75.91
71126;BME280;58785;55.566;38.058;2023-04-29T07:11:59;100346.50;;;7.13;74.94
71126;BME280;58785;55.566;38.058;2023-04-29T07:14:28;100339.50;;;7.23;75.31
71126;BME280;58785;55.566;38.058;2023-04-29T07:16:53;100333.47;;;7.43;74.79
71126;BME280;58785;55.566;38.058;2023-04-29T07:19:19;100343.56;;;7.72;74.31
71126;BME280;58785;55.566;38.058;2023-04-29T07:21:45;100351.41;;;7.73;74.38
71126;BME280;58785;55.566;38.058;2023-04-29T07:24:11;100360.69;;;7.68;73.61
71126;BME280;58785;55.566;38.058;2023-04-29T07:26:37;100355.16;;;7.60;73.92
71126;BME280;58785;55.566;38.058;2023-04-29T07:29:03;100353.84;;;7.54;73.93
71126;BME280;58785;55.566;38.058;2023-04-29T07:31:29;100357.22;;;7.45;73.29
71126;BME280;58785;55.566;38.058;2023-04-29T07:33:55;100355.50;;;7.66;73.62
71126;BME280;58785;55.566;38.058;2023-04-29T07:36:22;100355.47;;;7.89;72.15
71126;BME280;58785;55.566;38.058;2023-04-29T07:38:48;100362.31;;;8.02;71.80
71126;BME280;58785;55.566;38.058;2023-04-29T07:41:13;100363.13;;;8.14;72.01
71126;BME280;58785;55.566;38.058;2023-04-29T07:43:40;100369.94;;;8.28;71.27
71126;BME280;58785;55.566;38.058;2023-04-29T07:46:06;100365.34;;;8.30;70.83
71126;BME280;58785;55.566;38.058;2023-04-29T07:48:38;100369.13;;;8.59;70.90
71126;BME280;58785;55.566;38.058;2023-04-29T07:51:05;100381.91;;;9.07;69.83
71126;BME280;58785;55.566;38.058;2023-04-29T07:53:31;100381.69;;;9.20;68.82
71126;BME280;58785;55.566;38.058;2023-04-29T07:55:57;100368.94;;;9.44;69.10
71126;BME280;58785;55.566;38.058;2023-04-29T07:58:22;100375.78;;;9.77;68.44
71126;BME280;58785;55.566;38.058;2023-04-29T08:00:48;100385.13;;;9.72;67.61
71126;BME280;58785;55.566;38.058;2023-04-29T08:03:14;100395.25;;;9.17;67.83
71126;BME280;58785;55.566;38.058;2023-04-29T08:05:40;100383.16;;;8.82;68.96
71126;BME280;58785;55.566;38.058;2023-04-29T08:08:06;100394.75;;;8.81;69.15
71126;BME280;58785;55.566;38.058;2023-04-29T08:10:32;100396.56;;;9.02;68.79
71126;BME280;58785;55.566;38.058;2023-04-29T08:13:01;100385.88;;;9.43;67.61
71126;BME280;58785;55.566;38.058;2023-04-29T08:15:28;100395.84;;;9.91;67.01
71126;BME280;58785;55.566;38.058;2023-04-29T08:17:54;100403.44;;;9.96;66.21
71126;BME280;58785;55.566;38.058;2023-04-29T08:20:20;100412.78;;;9.80;66.52
71126;BME280;58785;55.566;38.058;2023-04-29T08:22:46;100403.81;;;9.51;66.53
71126;BME280;58785;55.566;38.058;2023-04-29T08:25:12;100408.94;;;9.64;66.20
71126;BME280;58785;55.566;38.058;2023-04-29T08:27:38;100406.09;;;9.96;65.84
71126;BME280;58785;55.566;38.058;2023-04-29T08:30:04;100393.13;;;10.22;65.34
71126;BME280;58785;55.566;38.058;2023-04-29T08:32:31;100401.03;;;10.33;64.31
71126;BME280;58785;55.566;38.058;2023-04-29T08:34:58;100401.94;;;10.13;64.64
71126;BME280;58785;55.566;38.058;2023-04-29T08:37:24;100395.00;;;9.91;65.04
71126;BME280;58785;55.566;38.058;2023-04-29T08:39:49;100410.31;;;9.98;65.21
71126;BME280;58785;55.566;38.058;2023-04-29T08:42:18;100408.66;;;10.17;65.09
71126;BME280;58785;55.566;38.058;2023-04-29T08:44:45;100411.69;;;10.33;65.39
71126;BME280;58785;55.566;38.058;2023-04-29T08:47:12;100419.41;;;10.46;65.57
71126;BME280;58785;55.566;38.058;2023-04-29T08:49:39;100413.66;;;10.60;64.82
71126;BME280;58785;55.566;38.058;2023-04-29T08:52:06;100419.97;;;10.59;64.13
71126;BME280;58785;55.566;38.058;2023-04-29T08:54:31;100433.59;;;10.75;64.82
71126;BME280;58785;55.566;38.058;2023-04-29T08:56:57;100426.28;;;10.77;64.40
71126;BME280;58785;55.566;38.058;2023-04-29T08:59:24;100429.94;;;10.67;64.18
71126;BME280;58785;55.566;38.058;2023-04-29T09:01:52;100433.00;;;10.62;64.64
71126;BME280;58785;55.566;38.058;2023-04-29T09:04:43;100437.41;;;10.63;64.19
71126;BME280;58785;55.566;38.058;2023-04-29T09:07:12;100427.41;;;10.84;63.66
71126;BME280;58785;55.566;38.058;2023-04-29T09:09:39;100430.75;;;11.15;63.81
71126;BME280;58785;55.566;38.058;2023-04-29T09:12:06;100434.53;;;11.22;63.52
71126;BME280;58785;55.566;38.058;2023-04-29T09:14:32;100425.53;;;11.23;63.73
71126;BME280;58785;55.566;38.058;2023-04-29T09:16:59;100442.31;;;11.53;63.08
71126;BME280;58785;55.566;38.058;2023-04-29T09:19:33;100448.34;;;11.55;62.11
71126;BME280;58785;55.566;38.058;2023-04-29T09:22:03;100447.22;;;11.58;62.26
71126;BME280;58785;55.566;38.058;2023-04-29T09:24:31;100449.41;;;11.72;61.69
71126;BME280;58785;55.566;38.058;2023-04-29T09:26:59;100443.09;;;11.73;61.71
71126;BME280;58785;55.566;38.058;2023-04-29T09:29:28;100444.78;;;11.84;60.61
71126;BME280;58785;55.566;38.058;2023-04-29T09:31:54;100440.28;;;11.84;61.12
71126;BME280;58785;55.566;38.058;2023-04-29T09:34:32;100445.75;;;11.83;60.97
71126;BME280;58785;55.566;38.058;2023-04-29T09:37:00;100451.84;;;11.65;60.94
71126;BME280;58785;55.566;38.058;2023-04-29T09:39:26;100450.78;;;11.39;60.68
71126;BME280;58785;55.566;38.058;2023-04-29T09:44:19;100456.38;;;11.55;60.23
71126;BME280;58785;55.566;38.058;2023-04-29T09:47:05;100452.06;;;11.35;60.76
71126;BME280;58785;55.566;38.058;2023-04-29T09:49:40;100460.75;;;11.46;60.84
71126;BME280;58785;55.566;38.058;2023-04-29T09:52:13;100462.75;;;11.72;60.32
71126;BME280;58785;55.566;38.058;2023-04-29T09:54:42;100454.59;;;11.93;59.25
71126;BME280;58785;55.566;38.058;2023-04-29T09:57:10;100454.50;;;12.02;59.73
71126;BME280;58785;55.566;38.058;2023-04-29T09:59:38;100467.25;;;12.18;59.29
71126;BME280;58785;55.566;38.058;2023-04-29T10:02:15;100465.91;;;12.04;58.56
71126;BME280;58785;55.566;38.058;2023-04-29T10:04:53;100470.59;;;12.20;57.58
71126;BME280;58785;55.566;38.058;2023-04-29T10:07:22;100468.34;;;12.25;58.17
71126;BME280;58785;55.566;38.058;2023-04-29T10:09:50;100457.09;;;11.94;57.34
71126;BME280;58785;55.566;38.058;2023-04-29T10:12:19;100473.44;;;11.72;57.83
71126;BME280;58785;55.566;38.058;2023-04-29T10:18:33;100496.47;;;11.36;57.66
71126;BME280;58785;55.566;38.058;2023-04-29T10:20:40;100498.72;;;11.31;58.32
71126;BME280;58785;55.566;38.058;2023-04-29T10:23:12;100490.28;;;11.35;58.26
71126;BME280;58785;55.566;38.058;2023-04-29T10:25:39;100493.91;;;11.54;57.48
71126;BME280;58785;55.566;38.058;2023-04-29T10:28:11;100493.00;;;11.82;57.76
71126;BME280;58785;55.566;38.058;2023-04-29T10:30:44;100489.31;;;12.20;56.88
71126;BME280;58785;55.566;38.058;2023-04-29T10:33:11;100494.41;;;12.41;56.65
71126;BME280;58785;55.566;38.058;2023-04-29T10:35:42;100500.66;;;12.32;56.07
71126;BME280;58785;55.566;38.058;2023-04-29T10:38:33;100503.28;;;12.14;55.51
71126;BME280;58785;55.566;38.058;2023-04-29T10:43:58;100516.50;;;11.59;57.27
71126;BME280;58785;55.566;38.058;2023-04-29T10:46:25;100505.03;;;11.39;56.71
71126;BME280;58785;55.566;38.058;2023-04-29T10:49:01;100518.38;;;11.30;55.76
71126;BME280;58785;55.566;38.058;2023-04-29T10:51:32;100504.06;;;11.21;55.49
71126;BME280;58785;55.566;38.058;2023-04-29T10:54:11;100490.44;;;11.34;54.35
71126;BME280;58785;55.566;38.058;2023-04-29T10:56:43;100503.28;;;11.67;53.86
71126;BME280;58785;55.566;38.058;2023-04-29T10:59:19;100507.47;;;11.89;50.80
71126;BME280;58785;55.566;38.058;2023-04-29T11:04:13;100508.44;;;12.25;51.83
71126;BME280;58785;55.566;38.058;2023-04-29T11:06:41;100502.78;;;12.56;52.16
71126;BME280;58785;55.566;38.058;2023-04-29T11:09:30;100508.59;;;12.87;52.27
71126;BME280;58785;55.566;38.058;2023-04-29T11:14:48;100503.09;;;12.53;50.94
71126;BME280;58785;55.566;38.058;2023-04-29T11:17:16;100510.25;;;12.52;51.43
71126;BME280;58785;55.566;38.058;2023-04-29T11:19:46;100504.69;;;12.63;51.41
71126;BME280;58785;55.566;38.058;2023-04-29T11:22:29;100505.84;;;12.79;50.61
71126;BME280;58785;55.566;38.058;2023-04-29T11:25:00;100503.66;;;12.74;50.57
71126;BME280;58785;55.566;38.058;2023-04-29T11:27:34;100515.81;;;12.86;50.18
71126;BME280;58785;55.566;38.058;2023-04-29T11:30:01;100513.72;;;12.80;50.48
71126;BME280;58785;55.566;38.058;2023-04-29T11:32:34;100528.72;;;12.73;49.12
71126;BME280;58785;55.566;38.058;2023-04-29T11:37:37;100506.69;;;12.79;49.74
71126;BME280;58785;55.566;38.058;2023-04-29T11:40:04;100493.41;;;13.05;49.50
71126;BME280;58785;55.566;38.058;2023-04-29T11:42:40;100516.53;;;13.24;49.32
71126;BME280;58785;55.566;38.058;2023-04-29T11:45:07;100511.38;;;13.31;49.11
71126;BME280;58785;55.566;38.058;2023-04-29T11:47:33;100509.00;;;13.28;49.29
71126;BME280;58785;55.566;38.058;2023-04-29T11:50:04;100507.09;;;13.20;48.77
71126;BME280;58785;55.566;38.058;2023-04-29T11:52:31;100504.13;;;13.23;49.50
71126;BME280;58785;55.566;38.058;2023-04-29T11:54:57;100500.56;;;13.40;49.38
71126;BME280;58785;55.566;38.058;2023-04-29T11:57:29;100483.94;;;13.55;49.23
71126;BME280;58785;55.566;38.058;2023-04-29T11:59:59;100486.53;;;13.72;49.15
71126;BME280;58785;55.566;38.058;2023-04-29T12:02:29;100490.00;;;13.91;48.72
71126;BME280;58785;55.566;38.058;2023-04-29T12:05:05;100496.34;;;13.90;48.72
71126;BME280;58785;55.566;38.058;2023-04-29T12:07:33;100501.31;;;13.76;48.75
71126;BME280;58785;55.566;38.058;2023-04-29T12:10:01;100501.69;;;13.56;49.25
71126;BME280;58785;55.566;38.058;2023-04-29T12:12:29;100499.47;;;13.51;49.85
71126;BME280;58785;55.566;38.058;2023-04-29T12:14:59;100512.09;;;13.59;49.80
71126;BME280;58785;55.566;38.058;2023-04-29T12:17:30;100506.97;;;13.47;49.40
71126;BME280;58785;55.566;38.058;2023-04-29T12:19:56;100498.91;;;13.21;47.92
71126;BME280;58785;55.566;38.058;2023-04-29T12:22:22;100501.03;;;13.18;48.32
71126;BME280;58785;55.566;38.058;2023-04-29T12:24:51;100504.00;;;13.33;48.84
71126;BME280;58785;55.566;38.058;2023-04-29T12:27:17;100506.88;;;13.57;48.96
71126;BME280;58785;55.566;38.058;2023-04-29T12:29:42;100500.84;;;13.55;48.18
71126;BME280;58785;55.566;38.058;2023-04-29T12:32:21;100508.44;;;13.42;46.76
71126;BME280;58785;55.566;38.058;2023-04-29T12:34:49;100511.84;;;13.26;46.86
71126;BME280;58785;55.566;38.058;2023-04-29T12:37:15;100513.28;;;13.20;46.76
71126;BME280;58785;55.566;38.058;2023-04-29T12:39:41;100509.84;;;13.28;47.43
71126;BME280;58785;55.566;38.058;2023-04-29T12:42:13;100510.75;;;13.37;46.55
71126;BME280;58785;55.566;38.058;2023-04-29T12:44:39;100491.84;;;13.38;46.92
71126;BME280;58785;55.566;38.058;2023-04-29T12:47:07;100499.16;;;13.54;47.73
71126;BME280;58785;55.566;38.058;2023-04-29T12:49:35;100501.09;;;13.70;47.27
71126;BME280;58785;55.566;38.058;2023-04-29T12:52:01;100485.91;;;13.78;47.22
71126;BME280;58785;55.566;38.058;2023-04-29T12:54:27;100491.88;;;13.64;46.32
71126;BME280;58785;55.566;38.058;2023-04-29T12:56:54;100500.84;;;13.55;47.04
71126;BME280;58785;55.566;38.058;2023-04-29T12:59:19;100500.00;;;13.55;46.93
71126;BME280;58785;55.566;38.058;2023-04-29T13:01:45;100501.38;;;13.59;47.29
71126;BME280;58785;55.566;38.058;2023-04-29T13:04:11;100503.47;;;13.47;47.04
71126;BME280;58785;55.566;38.058;2023-04-29T13:06:36;100494.78;;;13.27;46.20
71126;BME280;58785;55.566;38.058;2023-04-29T13:09:07;100489.19;;;13.20;45.86
71126;BME280;58785;55.566;38.058;2023-04-29T13:11:37;100491.09;;;13.28;45.81
71126;BME280;58785;55.566;38.058;2023-04-29T13:14:06;100489.41;;;13.27;45.42
71126;BME280;58785;55.566;38.058;2023-04-29T13:16:32;100503.66;;;13.28;44.63
71126;BME280;58785;55.566;38.058;2023-04-29T13:18:59;100502.03;;;13.35;44.93